Time;durP1;ratioP1;P1;durP2;ratioP2;P2;SDS_P1;SDS_P2;PMS_P1;PMS_P2;Temp;Humidity;BMP_temperature;BMP_pressure;BME280_temperature;BME280_humidity;BME280_pressure;Samples;Min_cycle;Max_cycle;Signal;HPM_P1;HPM_P2
2023/10/02 00:03:29;;;;;;;22.65;10.43;;;17.60;99.90;;;;;;5075476;28;20109;-45
2023/10/02 00:05:55;;;;;;;19.52;10.00;;;17.50;99.90;;;;;;5075439;28;20499;-46
2023/10/02 00:08:39;;;;;;;21.48;9.88;;;17.60;99.90;;;;;;5074124;28;20044;-44
2023/10/02 00:11:41;;;;;;;24.88;10.45;;;17.50;99.90;;;;;;5075525;28;20059;-46
2023/10/02 00:14:23;;;;;;;22.73;11.23;;;17.50;99.90;;;;;;5075594;28;20404;-45
2023/10/02 00:17:08;;;;;;;21.67;9.77;;;17.50;99.90;;;;;;5075442;28;20281;-46
2023/10/02 00:19:39;;;;;;;21.88;10.82;;;17.60;99.90;;;;;;5075326;28;20040;-48
2023/10/02 00:22:38;;;;;;;22.02;10.60;;;17.60;99.90;;;;;;5057376;28;20045;-45
2023/10/02 00:25:19;;;;;;;20.92;10.52;;;17.40;99.90;;;;;;5075167;28;20130;-46
2023/10/02 00:27:48;;;;;;;24.13;10.98;;;17.40;99.90;;;;;;5075154;28;20067;-45
2023/10/02 00:30:15;;;;;;;21.08;10.13;;;17.40;99.90;;;;;;5075324;28;20048;-45
2023/10/02 00:32:45;;;;;;;20.88;10.65;;;17.40;99.90;;;;;;5073921;28;20040;-48
2023/10/02 00:35:11;;;;;;;23.13;10.90;;;17.40;99.90;;;;;;5075364;28;20119;-46
2023/10/02 00:37:44;;;;;;;21.58;10.98;;;17.40;99.90;;;;;;5074936;28;20082;-47
2023/10/02 00:40:21;;;;;;;21.83;10.48;;;17.40;99.90;;;;;;5074873;28;20485;-46
2023/10/02 00:42:55;;;;;;;23.83;11.00;;;17.40;99.90;;;;;;5074946;28;20169;-46
2023/10/02 00:45:21;;;;;;;21.83;10.88;;;17.40;99.90;;;;;;5074538;28;20040;-47
2023/10/02 00:47:49;;;;;;;22.65;10.85;;;17.40;99.90;;;;;;5074913;28;20090;-47
2023/10/02 00:50:24;;;;;;;23.80;12.30;;;17.30;99.90;;;;;;5074595;28;20485;-48
2023/10/02 00:53:03;;;;;;;23.42;10.55;;;17.40;99.90;;;;;;5075052;28;20041;-49
2023/10/02 00:55:33;;;;;;;21.95;10.73;;;17.30;99.90;;;;;;5074598;28;20049;-46
2023/10/02 00:58:04;;;;;;;21.33;11.25;;;17.20;99.90;;;;;;5074420;28;20495;-47
2023/10/02 01:00:35;;;;;;;24.15;11.75;;;17.20;99.90;;;;;;5074482;28;20432;-49
2023/10/02 01:03:08;;;;;;;22.90;11.27;;;17.20;99.90;;;;;;5074773;28;20393;-50
2023/10/02 01:05:42;;;;;;;22.02;11.32;;;17.10;99.90;;;;;;5074549;28;20370;-49
2023/10/02 01:08:24;;;;;;;23.63;11.27;;;17.00;99.90;;;;;;5074425;28;20076;-49
2023/10/02 01:11:02;;;;;;;24.63;12.55;;;17.10;99.90;;;;;;5074357;28;20166;-50
2023/10/02 01:13:32;;;;;;;26.02;12.23;;;17.00;99.90;;;;;;5074461;28;20182;-47
2023/10/02 01:16:03;;;;;;;25.38;11.65;;;17.00;99.90;;;;;;5074553;28;20044;-48
2023/10/02 01:18:30;;;;;;;21.63;11.38;;;17.00;99.90;;;;;;5074274;28;20051;-48
2023/10/02 01:20:59;;;;;;;21.65;11.50;;;16.90;99.90;;;;;;5074524;28;20058;-46
2023/10/02 01:23:27;;;;;;;28.10;12.27;;;16.90;99.90;;;;;;5074199;28;20080;-46
2023/10/02 01:26:00;;;;;;;24.50;12.73;;;17.00;99.90;;;;;;5072732;28;20044;-45
2023/10/02 01:28:32;;;;;;;24.73;12.48;;;16.90;99.90;;;;;;5074128;28;20428;-45
2023/10/02 01:31:31;;;;;;;25.52;12.48;;;16.90;99.90;;;;;;5073999;28;20056;-46
2023/10/02 01:33:45;;;;;;;22.95;11.85;;;16.80;99.90;;;;;;5072894;28;20048;-45
2023/10/02 01:36:11;;;;;;;24.40;13.43;;;16.90;99.90;;;;;;5074214;28;20040;-47
2023/10/02 01:38:37;;;;;;;24.98;12.95;;;16.90;99.90;;;;;;5074017;28;20045;-48
2023/10/02 01:41:08;;;;;;;26.67;12.93;;;16.90;99.90;;;;;;5073849;28;20123;-45
2023/10/02 01:43:39;;;;;;;25.55;12.52;;;16.80;99.90;;;;;;5073762;28;20044;-46
2023/10/02 01:46:06;;;;;;;26.27;12.55;;;16.80;99.90;;;;;;5073643;28;20547;-46
2023/10/02 01:48:40;;;;;;;24.38;12.23;;;16.80;99.90;;;;;;5073414;28;20076;-46
2023/10/02 01:51:20;;;;;;;27.48;13.32;;;16.80;99.90;;;;;;5073587;28;20033;-47
2023/10/02 01:53:46;;;;;;;27.38;13.57;;;16.80;99.90;;;;;;5073701;28;20044;-49
2023/10/02 01:56:12;;;;;;;26.08;13.23;;;16.80;99.90;;;;;;5073546;28;20097;-48
2023/10/02 01:58:42;;;;;;;24.40;13.68;;;16.80;99.90;;;;;;5073592;28;20056;-46
2023/10/02 02:01:10;;;;;;;28.95;14.68;;;16.80;99.90;;;;;;5073593;28;20036;-47
2023/10/02 02:03:41;;;;;;;25.13;13.43;;;16.80;99.90;;;;;;5073472;28;20044;-49
2023/10/02 02:06:08;;;;;;;31.35;15.02;;;16.90;99.90;;;;;;5072182;28;20435;-48
2023/10/02 02:08:43;;;;;;;30.23;13.55;;;16.80;99.90;;;;;;5072824;28;20039;-46
2023/10/02 02:11:17;;;;;;;26.42;13.55;;;16.80;99.90;;;;;;5073118;28;20119;-48
2023/10/02 02:13:48;;;;;;;28.13;13.15;;;16.70;99.90;;;;;;5071897;28;20043;-45
2023/10/02 02:16:16;;;;;;;27.27;15.07;;;16.70;99.90;;;;;;5073314;28;20036;-45
2023/10/02 02:18:45;;;;;;;28.85;14.40;;;16.70;99.90;;;;;;5073005;28;20048;-48
2023/10/02 02:21:19;;;;;;;30.25;13.95;;;16.70;99.90;;;;;;5072999;28;20513;-47
2023/10/02 02:23:46;;;;;;;25.98;14.45;;;16.70;99.90;;;;;;5072813;28;20158;-45
2023/10/02 02:26:22;;;;;;;25.77;13.63;;;16.60;99.90;;;;;;5072689;28;20037;-44
2023/10/02 02:28:49;;;;;;;28.38;15.10;;;16.60;99.90;;;;;;5072763;28;20528;-44
2023/10/02 02:31:29;;;;;;;30.35;14.40;;;16.60;99.90;;;;;;5072946;28;20075;-45
2023/10/02 02:34:00;;;;;;;29.23;14.98;;;16.60;99.90;;;;;;5072539;28;20408;-45
2023/10/02 02:36:27;;;;;;;30.77;15.77;;;16.60;99.90;;;;;;5072686;28;20041;-46
2023/10/02 02:42:09;;;;;;;30.02;15.52;;;16.60;99.90;;;;;;5072585;28;20056;-46
2023/10/02 02:44:46;;;;;;;29.65;15.88;;;16.60;99.90;;;;;;5072563;28;20070;-46
2023/10/02 02:47:21;;;;;;;34.03;16.48;;;16.60;99.90;;;;;;5072812;28;20043;-45
2023/10/02 02:49:48;;;;;;;32.22;15.82;;;16.50;99.90;;;;;;5071326;28;20519;-45
2023/10/02 02:52:27;;;;;;;32.72;15.68;;;16.50;99.90;;;;;;5072559;28;20058;-47
2023/10/02 02:55:05;;;;;;;32.50;16.55;;;16.50;99.90;;;;;;5071461;28;20040;-45
2023/10/02 02:57:34;;;;;;;31.35;15.88;;;16.40;99.90;;;;;;5072400;28;20123;-45
2023/10/02 03:02:54;;;;;;;30.85;16.55;;;16.40;99.90;;;;;;5072201;28;20052;-46
2023/10/02 03:05:21;;;;;;;30.92;16.10;;;16.40;99.90;;;;;;5070862;28;20040;-45
2023/10/02 03:07:56;;;;;;;30.17;17.25;;;16.40;99.90;;;;;;5072255;28;20051;-45
2023/10/02 03:10:23;;;;;;;29.98;16.60;;;16.40;99.90;;;;;;5072355;28;20044;-46
2023/10/02 03:12:51;;;;;;;28.25;15.23;;;16.30;99.90;;;;;;5072436;28;20044;-46
2023/10/02 03:15:19;;;;;;;34.08;17.55;;;16.40;99.90;;;;;;5072270;28;20397;-47
2023/10/02 03:17:46;;;;;;;32.92;16.38;;;16.30;99.90;;;;;;5071936;28;20087;-48
2023/10/02 03:20:30;;;;;;;33.38;16.98;;;16.30;99.90;;;;;;5071367;28;20044;-46
2023/10/02 03:22:57;;;;;;;34.13;16.98;;;16.30;99.90;;;;;;5072142;28;20052;-48
2023/10/02 03:25:40;;;;;;;31.42;17.13;;;16.30;99.90;;;;;;5072193;28;20036;-46
2023/10/02 03:28:16;;;;;;;33.42;17.52;;;16.30;99.90;;;;;;5071830;28;20052;-49
2023/10/02 03:30:46;;;;;;;35.75;17.90;;;16.20;99.90;;;;;;5072042;28;20074;-45
2023/10/02 03:33:20;;;;;;;35.55;18.58;;;16.20;99.90;;;;;;5072121;28;20051;-49
2023/10/02 03:35:58;;;;;;;38.17;19.23;;;16.20;99.90;;;;;;5070662;28;20750;-47
2023/10/02 03:38:27;;;;;;;34.92;19.33;;;16.20;99.90;;;;;;5071941;28;20040;-47
2023/10/02 03:40:55;;;;;;;35.38;18.42;;;16.20;99.90;;;;;;5071826;28;20040;-46
2023/10/02 03:43:34;;;;;;;34.28;17.40;;;16.20;99.90;;;;;;5070632;28;20463;-49
2023/10/02 03:46:04;;;;;;;33.15;17.40;;;16.20;99.90;;;;;;5070804;28;20044;-46
2023/10/02 03:48:33;;;;;;;33.15;18.17;;;16.20;99.90;;;;;;5070633;28;20049;-48
2023/10/02 03:51:03;;;;;;;36.70;18.90;;;16.20;99.90;;;;;;5070517;28;20651;-46
2023/10/02 03:53:29;;;;;;;33.60;18.45;;;16.20;99.90;;;;;;5071980;28;20044;-49
2023/10/02 03:58:53;;;;;;;31.98;18.63;;;16.20;99.90;;;;;;5071935;28;20054;-48
2023/10/02 04:01:28;;;;;;;34.40;18.65;;;16.20;99.90;;;;;;5071982;28;20041;-47
2023/10/02 04:06:42;;;;;;;35.13;18.35;;;16.20;99.90;;;;;;5071871;28;20566;-45
2023/10/02 04:11:45;;;;;;;31.95;17.65;;;16.20;99.90;;;;;;5071916;28;20044;-45
2023/10/02 04:14:17;;;;;;;31.60;16.85;;;16.20;99.90;;;;;;5071776;28;20083;-45
2023/10/02 04:17:08;;;;;;;32.40;17.05;;;16.20;99.90;;;;;;5070207;28;20045;-45
2023/10/02 04:19:35;;;;;;;33.67;17.00;;;16.20;99.90;;;;;;5071510;28;20040;-45
2023/10/02 04:22:06;;;;;;;37.92;18.70;;;16.20;99.90;;;;;;5070427;28;20299;-45
2023/10/02 04:24:51;;;;;;;28.85;16.25;;;16.20;99.90;;;;;;5071599;28;20381;-46
2023/10/02 04:27:22;;;;;;;34.35;17.27;;;16.20;99.90;;;;;;5071496;28;20492;-45
2023/10/02 04:32:32;;;;;;;31.80;17.33;;;16.20;99.90;;;;;;5075092;28;20450;-46
2023/10/02 04:34:58;;;;;;;29.90;16.40;;;16.20;99.90;;;;;;5073794;28;20052;-49
2023/10/02 04:37:24;;;;;;;32.88;17.25;;;16.20;99.90;;;;;;5074896;28;20047;-46
2023/10/02 04:40:00;;;;;;;30.13;16.73;;;16.20;99.90;;;;;;5075323;28;20052;-46
2023/10/02 04:42:25;;;;;;;31.23;17.60;;;16.30;99.90;;;;;;5075002;28;20501;-46
2023/10/02 04:44:56;;;;;;;32.10;16.45;;;16.20;99.90;;;;;;5074785;28;20129;-46
2023/10/02 04:47:26;;;;;;;29.98;17.92;;;16.20;99.90;;;;;;5073294;28;20146;-45
2023/10/02 04:50:34;;;;;;;31.73;17.15;;;16.20;99.90;;;;;;5074525;28;20047;-46
2023/10/02 04:52:55;;;;;;;29.95;17.25;;;16.20;99.90;;;;;;5074588;28;20127;-44
2023/10/02 04:55:32;;;;;;;29.55;16.52;;;16.20;99.90;;;;;;5074527;28;20044;-46
2023/10/02 04:58:20;;;;;;;31.63;16.40;;;16.10;99.90;;;;;;5074471;28;20400;-46
2023/10/02 05:03:33;;;;;;;30.60;16.58;;;16.10;99.90;;;;;;5074584;28;20449;-47
2023/10/02 05:05:59;;;;;;;31.25;16.33;;;16.10;99.90;;;;;;5074777;28;20032;-45
2023/10/02 05:08:41;;;;;;;29.85;16.67;;;16.10;99.90;;;;;;5074385;28;20032;-46
2023/10/02 05:14:09;;;;;;;34.95;17.85;;;16.00;99.90;;;;;;5068388;28;20485;-45
2023/10/02 05:16:39;;;;;;;30.33;16.42;;;15.90;99.90;;;;;;5074405;28;20040;-46
2023/10/02 05:19:06;;;;;;;29.77;15.98;;;16.00;99.90;;;;;;5074243;28;20045;-46
2023/10/02 05:21:39;;;;;;;30.08;16.65;;;16.00;99.90;;;;;;5074066;28;20154;-45
2023/10/02 05:24:07;;;;;;;32.30;17.55;;;15.90;99.90;;;;;;5074248;28;20124;-50
2023/10/02 05:26:36;;;;;;;33.78;16.85;;;15.90;99.90;;;;;;5073946;28;20045;-46
2023/10/02 05:29:05;;;;;;;29.27;16.67;;;15.90;99.90;;;;;;5074114;28;20400;-48
2023/10/02 05:31:35;;;;;;;32.70;16.70;;;15.90;99.90;;;;;;5072805;28;20040;-48
2023/10/02 05:34:13;;;;;;;30.15;15.95;;;15.90;99.90;;;;;;5074154;28;20048;-45
2023/10/02 05:36:55;;;;;;;33.85;16.60;;;15.80;99.90;;;;;;5072848;28;20163;-46
2023/10/02 05:42:13;;;;;;;36.35;17.25;;;15.80;99.90;;;;;;5072990;28;19983;-49
2023/10/02 05:44:42;;;;;;;29.63;16.60;;;15.80;99.90;;;;;;5073720;28;20045;-50
2023/10/02 05:47:09;;;;;;;31.60;17.33;;;15.80;99.90;;;;;;5072372;28;20044;-50
2023/10/02 05:49:47;;;;;;;31.38;17.38;;;15.80;99.90;;;;;;5073552;28;20032;-48
2023/10/02 05:52:14;;;;;;;32.35;16.98;;;15.90;99.90;;;;;;5073713;28;20055;-48
2023/10/02 05:54:47;;;;;;;29.50;16.63;;;15.80;99.90;;;;;;5073530;28;20040;-50
2023/10/02 05:57:13;;;;;;;31.63;16.45;;;15.80;99.90;;;;;;5073771;28;20162;-46
2023/10/02 05:59:46;;;;;;;38.20;17.17;;;15.90;99.90;;;;;;5072848;28;20423;-48
2023/10/02 06:02:13;;;;;;;29.75;16.23;;;15.80;99.90;;;;;;5072283;28;20530;-46
2023/10/02 06:05:28;;;;;;;31.90;18.60;;;15.90;99.90;;;;;;5072413;28;20041;-48
2023/10/02 06:07:43;;;;;;;31.52;16.88;;;15.90;99.90;;;;;;5068220;28;20044;-45
2023/10/02 06:10:27;;;;;;;33.03;17.23;;;15.80;99.90;;;;;;5071293;28;20040;-49
2023/10/02 06:13:02;;;;;;;31.13;16.48;;;15.80;99.90;;;;;;5072364;28;20044;-46
2023/10/02 06:15:46;;;;;;;31.50;17.65;;;15.90;99.90;;;;;;5072470;28;20040;-45
2023/10/02 06:18:24;;;;;;;37.58;17.73;;;15.80;99.90;;;;;;5072545;28;20045;-46
2023/10/02 06:21:00;;;;;;;30.95;16.30;;;15.90;99.90;;;;;;5072489;28;20496;-45
2023/10/02 06:23:38;;;;;;;28.08;17.05;;;15.90;99.90;;;;;;5070664;28;20560;-47
2023/10/02 06:26:06;;;;;;;30.60;15.63;;;15.90;99.90;;;;;;5072252;28;20043;-48
2023/10/02 06:28:32;;;;;;;31.30;16.92;;;15.90;99.90;;;;;;5071902;28;20092;-46
2023/10/02 06:30:58;;;;;;;32.13;16.20;;;15.90;99.90;;;;;;5070890;28;20079;-48
2023/10/02 06:33:24;;;;;;;32.75;17.10;;;15.90;99.90;;;;;;5072207;28;20430;-47
2023/10/02 06:35:57;;;;;;;31.83;17.90;;;15.90;99.90;;;;;;5071876;28;20048;-46
2023/10/02 06:38:32;;;;;;;30.55;17.52;;;15.90;99.90;;;;;;5071783;28;20476;-50
2023/10/02 06:40:59;;;;;;;35.58;18.50;;;15.90;99.90;;;;;;5071947;28;20127;-50
2023/10/02 06:43:29;;;;;;;36.25;19.17;;;16.00;99.90;;;;;;5070628;28;20158;-46
2023/10/02 06:46:13;;;;;;;30.65;16.98;;;15.90;99.90;;;;;;5071793;28;20040;-46
2023/10/02 06:48:43;;;;;;;34.47;17.35;;;16.00;99.90;;;;;;5071773;28;20370;-45
2023/10/02 06:51:10;;;;;;;35.97;17.88;;;16.00;99.90;;;;;;5071840;28;20059;-47
2023/10/02 06:53:40;;;;;;;34.65;17.42;;;16.00;99.90;;;;;;5070342;28;20134;-48
2023/10/02 06:56:10;;;;;;;33.72;17.77;;;16.00;99.90;;;;;;5071681;28;20362;-46
2023/10/02 06:58:49;;;;;;;34.45;19.10;;;16.00;99.90;;;;;;5071532;28;20127;-49
2023/10/02 07:01:18;;;;;;;34.10;17.60;;;16.00;99.90;;;;;;5071687;28;20064;-46
2023/10/02 07:03:50;;;;;;;31.98;17.77;;;16.10;99.90;;;;;;5071161;28;20089;-46
2023/10/02 07:06:19;;;;;;;34.30;18.45;;;16.10;99.90;;;;;;5070627;28;20033;-44
2023/10/02 07:08:48;;;;;;;29.60;18.23;;;16.20;99.90;;;;;;5070657;28;20123;-44
2023/10/02 07:11:18;;;;;;;33.38;17.83;;;16.30;99.90;;;;;;5071015;28;20481;-45
2023/10/02 07:13:51;;;;;;;30.77;17.15;;;16.30;99.90;;;;;;5070427;28;20396;-47
2023/10/02 07:16:17;;;;;;;35.22;19.17;;;16.40;99.90;;;;;;5072284;28;20093;-45
2023/10/02 07:18:49;;;;;;;34.15;18.48;;;16.40;99.90;;;;;;5070874;28;20078;-45
2023/10/02 07:21:21;;;;;;;32.10;18.17;;;16.50;99.90;;;;;;5072111;28;20040;-45
2023/10/02 07:23:50;;;;;;;35.80;18.65;;;16.50;99.90;;;;;;5071812;28;20051;-46
2023/10/02 07:26:20;;;;;;;32.05;18.25;;;16.60;99.90;;;;;;5072164;28;20044;-45
2023/10/02 07:28:50;;;;;;;31.90;17.75;;;16.70;99.90;;;;;;5071508;28;20056;-49
2023/10/02 07:31:25;;;;;;;32.92;17.65;;;16.70;99.90;;;;;;5071789;28;20040;-46
2023/10/02 07:33:55;;;;;;;33.45;17.83;;;16.80;99.90;;;;;;5071635;28;20048;-45
2023/10/02 07:36:20;;;;;;;34.60;19.30;;;16.90;99.90;;;;;;5072055;28;20086;-45
2023/10/02 07:38:47;;;;;;;34.78;18.65;;;17.00;99.90;;;;;;5065656;28;20425;-45
2023/10/02 07:41:17;;;;;;;36.30;19.13;;;17.00;99.90;;;;;;5062428;28;20059;-45
2023/10/02 07:43:42;;;;;;;39.10;19.42;;;17.10;99.90;;;;;;5057974;28;20411;-45
2023/10/02 07:46:14;;;;;;;39.58;18.45;;;17.10;99.90;;;;;;5061758;28;20123;-47
2023/10/02 07:48:55;;;;;;;38.08;19.77;;;17.20;99.90;;;;;;5045051;28;20047;-47
2023/10/02 07:51:30;;;;;;;32.45;18.02;;;17.20;99.90;;;;;;5072050;28;20090;-45
2023/10/02 07:53:58;;;;;;;37.42;19.60;;;17.30;99.90;;;;;;5071811;28;20064;-45
2023/10/02 07:56:25;;;;;;;36.13;18.80;;;17.30;99.90;;;;;;5070061;28;20107;-47
2023/10/02 07:58:55;;;;;;;36.05;18.85;;;17.40;99.90;;;;;;5072088;28;20041;-45
2023/10/02 08:01:25;;;;;;;34.40;19.40;;;17.40;99.90;;;;;;5071265;28;20047;-47
2023/10/02 08:03:51;;;;;;;35.88;19.70;;;17.40;99.90;;;;;;5070045;28;20044;-47
2023/10/02 08:06:21;;;;;;;36.47;19.77;;;17.50;99.90;;;;;;5073303;28;20045;-49
2023/10/02 08:11:52;;;;;;;35.65;19.75;;;17.50;99.90;;;;;;5075664;28;20078;-47
2023/10/02 08:19:56;;;;;;;35.45;19.02;;;17.70;99.90;;;;;;5075374;28;20087;-50
2023/10/02 08:22:35;;;;;;;38.22;21.48;;;17.70;99.90;;;;;;5073884;28;20036;-46
2023/10/02 08:25:13;;;;;;;33.47;18.42;;;17.80;99.90;;;;;;5075479;28;20485;-47
2023/10/02 08:27:42;;;;;;;37.83;20.25;;;17.90;99.90;;;;;;5058222;28;20087;-46
2023/10/02 08:33:07;;;;;;;35.25;18.95;;;18.10;99.90;;;;;;5062679;28;20075;-45
2023/10/02 08:35:33;;;;;;;38.35;20.00;;;18.20;99.90;;;;;;5075366;28;20078;-46
2023/10/02 08:37:59;;;;;;;37.45;20.02;;;18.20;99.90;;;;;;5075085;28;20079;-47
2023/10/02 08:40:26;;;;;;;43.13;22.45;;;18.30;99.90;;;;;;5071799;28;20051;-46
2023/10/02 08:42:53;;;;;;;37.63;19.85;;;18.40;99.90;;;;;;5062469;28;20048;-46
2023/10/02 08:45:23;;;;;;;41.45;20.95;;;18.40;99.90;;;;;;5073823;28;20048;-47
2023/10/02 08:47:49;;;;;;;42.63;21.33;;;18.40;99.90;;;;;;5075047;28;20066;-47
2023/10/02 08:50:15;;;;;;;43.22;21.10;;;18.30;99.90;;;;;;5074598;28;20099;-46
2023/10/02 08:52:47;;;;;;;42.28;20.90;;;18.30;99.90;;;;;;5074546;28;20396;-46
2023/10/02 08:55:51;;;;;;;38.72;20.90;;;18.30;99.90;;;;;;5065486;28;20486;-45
2023/10/02 08:58:21;;;;;;;35.13;19.58;;;18.30;99.90;;;;;;5065474;28;20074;-46
2023/10/02 09:03:42;;;;;;;37.70;19.73;;;18.30;99.90;;;;;;5054523;28;20140;-46
2023/10/02 09:11:39;;;;;;;46.00;22.35;;;18.60;99.90;;;;;;5054370;28;20612;-47
2023/10/02 09:14:15;;;;;;;44.45;20.90;;;18.50;99.90;;;;;;5054430;28;20116;-46
2023/10/02 09:16:41;;;;;;;44.80;21.08;;;18.50;99.90;;;;;;5053978;28;20080;-47
2023/10/02 09:19:28;;;;;;;42.03;20.67;;;18.50;99.90;;;;;;5054291;28;20041;-49
2023/10/02 09:22:07;;;;;;;46.70;21.77;;;18.60;99.90;;;;;;5059874;28;20053;-46
2023/10/02 09:24:36;;;;;;;37.58;20.15;;;18.60;99.90;;;;;;5073941;28;20050;-45
2023/10/02 09:29:47;;;;;;;45.40;22.20;;;18.60;99.90;;;;;;5074063;28;20052;-46
2023/10/02 09:32:24;;;;;;;41.83;21.00;;;18.50;99.90;;;;;;5073886;28;20063;-45
2023/10/02 09:35:10;;;;;;;38.30;19.40;;;18.60;99.90;;;;;;5073877;28;20044;-46
2023/10/02 09:37:38;;;;;;;42.13;21.98;;;18.70;99.90;;;;;;5073983;28;20037;-47
2023/10/02 09:40:13;;;;;;;44.63;21.70;;;18.70;99.90;;;;;;5074198;28;20040;-45
2023/10/02 09:42:45;;;;;;;43.88;20.13;;;18.80;99.90;;;;;;5073976;28;20045;-45
2023/10/02 09:45:15;;;;;;;42.00;20.50;;;18.90;99.90;;;;;;5063555;28;20041;-47
2023/10/02 09:47:44;;;;;;;42.05;20.10;;;19.10;99.90;;;;;;5054721;28;20041;-53
2023/10/02 09:50:25;;;;;;;41.75;21.13;;;19.10;99.90;;;;;;5053608;28;20044;-45
2023/10/02 09:53:02;;;;;;;39.67;21.23;;;19.30;99.90;;;;;;5053736;28;20049;-45
2023/10/02 09:56:16;;;;;;;38.47;20.48;;;19.20;99.90;;;;;;5053609;28;20432;-49
2023/10/02 09:59:12;;;;;;;39.50;19.95;;;19.30;99.90;;;;;;5048660;28;20071;-48
2023/10/02 10:01:38;;;;;;;41.17;19.85;;;19.30;99.90;;;;;;5053533;28;20115;-48
2023/10/02 10:04:32;;;;;;;38.78;20.08;;;19.40;99.90;;;;;;5052078;28;20545;-46
2023/10/02 10:07:09;;;;;;;39.15;20.48;;;19.30;99.90;;;;;;5053021;28;20086;-47
2023/10/02 10:09:51;;;;;;;34.60;18.27;;;19.40;99.90;;;;;;5053434;28;20327;-47
2023/10/02 10:12:21;;;;;;;39.10;20.65;;;19.60;99.90;;;;;;5052475;28;20726;-48
2023/10/02 10:14:54;;;;;;;37.97;19.63;;;19.60;99.90;;;;;;5053156;28;20049;-47
2023/10/02 10:17:21;;;;;;;34.38;20.30;;;19.70;99.90;;;;;;5053396;28;20436;-46
2023/10/02 10:20:09;;;;;;;39.53;19.90;;;19.70;99.90;;;;;;5053241;28;20119;-49
2023/10/02 10:22:39;;;;;;;33.53;19.70;;;19.70;99.90;;;;;;5053200;28;20051;-46
2023/10/02 10:25:32;;;;;;;34.05;19.55;;;19.70;99.90;;;;;;5053220;28;20045;-46
2023/10/02 10:28:02;;;;;;;35.83;19.65;;;19.70;99.90;;;;;;5052196;28;20124;-46
2023/10/02 10:30:38;;;;;;;34.08;18.95;;;19.80;99.90;;;;;;5052816;28;20057;-49
2023/10/02 10:35:51;;;;;;;37.72;20.10;;;20.30;99.90;;;;;;5052859;28;20064;-47
2023/10/02 10:38:26;;;;;;;37.57;19.73;;;20.40;99.90;;;;;;5052974;28;20045;-47
2023/10/02 10:41:00;;;;;;;31.52;19.23;;;20.60;99.90;;;;;;5052829;28;20274;-47
2023/10/02 10:43:46;;;;;;;39.55;20.05;;;20.60;99.90;;;;;;5052395;28;20045;-48
2023/10/02 10:46:28;;;;;;;33.58;19.60;;;20.50;99.90;;;;;;5052286;28;20040;-46
2023/10/02 10:48:59;;;;;;;35.63;20.08;;;20.60;99.90;;;;;;5052486;28;20481;-46
2023/10/02 10:51:28;;;;;;;32.42;18.98;;;20.60;99.90;;;;;;5052590;28;20504;-48
2023/10/02 10:54:12;;;;;;;32.83;18.58;;;20.60;99.90;;;;;;5052414;28;20044;-49
2023/10/02 10:56:43;;;;;;;31.40;17.27;;;20.60;99.90;;;;;;5052712;28;20087;-46
2023/10/02 10:59:15;;;;;;;34.58;18.67;;;20.70;99.90;;;;;;5052355;28;20459;-50
2023/10/02 11:02:09;;;;;;;36.58;19.40;;;20.60;99.90;;;;;;5052372;28;20044;-49
2023/10/02 11:04:48;;;;;;;33.95;18.80;;;20.50;99.90;;;;;;5052122;28;20041;-49
2023/10/02 11:07:21;;;;;;;34.90;19.23;;;20.40;99.90;;;;;;5052510;28;20045;-49
2023/10/02 11:10:15;;;;;;;36.33;20.92;;;20.30;99.90;;;;;;5052315;28;20132;-50
2023/10/02 11:12:54;;;;;;;34.70;20.10;;;20.30;99.90;;;;;;5052266;28;20052;-45
2023/10/02 11:18:20;;;;;;;35.22;19.00;;;20.30;99.90;;;;;;5052150;28;20578;-45
2023/10/02 11:20:57;;;;;;;32.90;18.70;;;20.40;99.90;;;;;;5060942;28;20067;-46
2023/10/02 11:23:43;;;;;;;32.47;19.00;;;20.60;99.90;;;;;;5067439;28;20041;-47
2023/10/02 11:26:13;;;;;;;32.70;18.52;;;20.50;99.90;;;;;;5071049;28;20076;-46
2023/10/02 11:28:42;;;;;;;34.47;19.30;;;20.70;99.90;;;;;;5071897;28;20442;-50
2023/10/02 11:31:30;;;;;;;29.77;18.00;;;20.60;99.90;;;;;;5072295;28;20098;-47
2023/10/02 11:34:11;;;;;;;33.45;18.52;;;20.70;99.90;;;;;;5071921;28;20561;-48
2023/10/02 11:36:46;;;;;;;35.03;19.33;;;20.80;99.90;;;;;;5072190;28;20086;-47
2023/10/02 11:39:19;;;;;;;31.10;17.85;;;20.70;99.90;;;;;;5071395;28;20047;-45
2023/10/02 11:41:46;;;;;;;35.00;19.17;;;20.90;99.70;;;;;;5063219;28;20074;-45
2023/10/02 11:44:13;;;;;;;30.63;18.00;;;20.60;94.50;;;;;;5071522;28;20044;-45
2023/10/02 11:46:47;;;;;;;30.08;17.50;;;20.60;96.60;;;;;;5071876;28;20048;-47
2023/10/02 11:49:13;;;;;;;30.00;16.40;;;20.50;93.90;;;;;;5071936;28;20123;-46
2023/10/02 11:51:40;;;;;;;32.05;17.30;;;20.70;99.70;;;;;;5071988;28;20040;-47
2023/10/02 11:54:09;;;;;;;27.65;15.32;;;20.70;99.40;;;;;;5071862;28;20151;-45
2023/10/02 11:56:35;;;;;;;27.73;15.30;;;20.80;98.00;;;;;;5071703;28;20119;-45
2023/10/02 11:59:02;;;;;;;27.55;14.70;;;21.00;99.50;;;;;;5071973;28;20044;-45
2023/10/02 12:01:28;;;;;;;25.85;14.60;;;21.00;97.30;;;;;;5070659;28;20089;-46
2023/10/02 12:03:56;;;;;;;27.33;14.20;;;21.00;94.50;;;;;;5071860;28;20072;-47
2023/10/02 12:06:27;;;;;;;24.55;13.70;;;21.00;93.40;;;;;;5071871;28;20052;-47
2023/10/02 12:08:57;;;;;;;26.00;14.68;;;21.10;96.90;;;;;;5071606;28;20040;-47
2023/10/02 12:11:24;;;;;;;27.90;14.30;;;21.00;86.70;;;;;;5071599;28;20046;-48
2023/10/02 12:13:51;;;;;;;24.20;14.80;;;21.00;93.20;;;;;;5071721;28;20049;-47
2023/10/02 12:16:23;;;;;;;24.95;15.18;;;20.90;91.10;;;;;;5070389;28;20062;-48
2023/10/02 12:18:52;;;;;;;26.33;14.27;;;21.00;95.00;;;;;;5071679;28;20182;-47
2023/10/02 12:21:21;;;;;;;26.30;14.07;;;21.10;93.40;;;;;;5071689;28;20040;-49
2023/10/02 12:23:48;;;;;;;25.63;14.63;;;21.10;92.50;;;;;;5070146;28;20395;-47
2023/10/02 12:26:15;;;;;;;26.30;13.45;;;21.10;95.70;;;;;;5071655;28;20036;-49
2023/10/02 12:28:41;;;;;;;25.08;14.25;;;21.20;93.90;;;;;;5071101;28;20382;-48
2023/10/02 12:31:15;;;;;;;26.80;13.90;;;21.20;89.90;;;;;;5071489;28;20769;-47
2023/10/02 12:33:41;;;;;;;25.30;14.55;;;21.20;87.00;;;;;;5069739;28;20040;-51
2023/10/02 12:36:17;;;;;;;25.85;14.02;;;21.10;82.80;;;;;;5071257;28;20094;-49
2023/10/02 12:38:44;;;;;;;25.73;14.65;;;21.10;86.40;;;;;;5070979;28;20528;-47
2023/10/02 12:41:18;;;;;;;27.90;14.02;;;21.00;89.50;;;;;;5070207;28;20086;-49
2023/10/02 12:43:45;;;;;;;22.30;14.05;;;21.00;84.90;;;;;;5070743;28;20080;-48
2023/10/02 12:46:15;;;;;;;24.52;13.30;;;20.90;87.70;;;;;;5069046;28;20041;-47
2023/10/02 12:48:48;;;;;;;24.33;14.32;;;20.90;91.90;;;;;;5069365;28;20043;-46
2023/10/02 12:51:15;;;;;;;26.67;13.57;;;21.00;92.30;;;;;;5071708;28;20059;-46
2023/10/02 12:53:42;;;;;;;25.80;14.40;;;21.00;93.80;;;;;;5073975;28;20054;-46
2023/10/02 12:56:15;;;;;;;27.48;15.25;;;21.00;92.20;;;;;;5073879;28;20128;-47
2023/10/02 12:58:41;;;;;;;29.60;14.90;;;20.90;81.30;;;;;;5073731;28;20522;-48
2023/10/02 13:01:13;;;;;;;25.58;13.10;;;21.00;80.10;;;;;;5073862;28;20795;-48
2023/10/02 13:03:40;;;;;;;22.25;12.75;;;21.00;79.00;;;;;;5073792;28;20048;-47
2023/10/02 13:06:06;;;;;;;24.73;13.98;;;21.00;77.20;;;;;;5073663;28;20040;-49
2023/10/02 13:08:32;;;;;;;22.40;13.07;;;21.00;77.30;;;;;;5073653;28;20121;-51
2023/10/02 13:10:58;;;;;;;25.25;14.07;;;21.00;82.40;;;;;;5073591;28;20048;-51
2023/10/02 13:13:24;;;;;;;27.25;14.98;;;20.90;76.90;;;;;;5073933;28;20040;-51
2023/10/02 13:15:51;;;;;;;26.88;14.90;;;21.00;78.90;;;;;;5073526;28;20094;-46
2023/10/02 13:18:17;;;;;;;26.30;16.48;;;21.00;81.30;;;;;;5073567;28;20076;-48
2023/10/02 13:20:43;;;;;;;24.95;16.48;;;21.00;88.80;;;;;;5073589;28;20099;-49
2023/10/02 13:23:12;;;;;;;33.92;16.13;;;21.10;87.40;;;;;;5073474;28;20041;-46
2023/10/02 13:25:42;;;;;;;29.73;15.90;;;21.00;86.50;;;;;;5073697;28;20040;-50
2023/10/02 13:28:12;;;;;;;27.88;15.07;;;21.10;85.80;;;;;;5073177;28;20080;-49
2023/10/02 13:30:41;;;;;;;26.23;15.35;;;21.10;77.50;;;;;;5073607;28;20044;-47
2023/10/02 13:33:07;;;;;;;25.80;13.25;;;21.00;68.20;;;;;;5073418;28;20047;-55
2023/10/02 13:35:39;;;;;;;28.63;16.02;;;21.10;76.80;;;;;;5072082;28;20119;-50
2023/10/02 13:38:07;;;;;;;25.35;14.85;;;21.10;68.30;;;;;;5073444;28;20045;-47
2023/10/02 13:40:36;;;;;;;29.05;15.25;;;21.20;77.10;;;;;;5071790;28;20075;-47
2023/10/02 13:43:03;;;;;;;24.13;14.65;;;21.20;70.40;;;;;;5072890;28;20476;-50
2023/10/02 13:45:29;;;;;;;24.90;14.27;;;21.20;68.00;;;;;;5072795;28;20619;-49
2023/10/02 13:47:56;;;;;;;24.63;13.88;;;21.10;70.50;;;;;;5073066;28;20052;-47
2023/10/02 13:50:22;;;;;;;25.17;14.57;;;21.10;73.00;;;;;;5072956;28;20098;-47